Time;durP1;ratioP1;P1;durP2;ratioP2;P2;SDS_P1;SDS_P2;PMS_P1;PMS_P2;Temp;Humidity;BMP_temperature;BMP_pressure;BME280_temperature;BME280_humidity;BME280_pressure;Samples;Min_cycle;Max_cycle;Signal;HPM_P1;HPM_P2
2024/03/01 00:00:43;;;;;;;25.48;17.60;;;;;;;;;;4973882;28;20231;-84
2024/03/01 00:03:11;;;;;;;22.92;15.82;;;;;;;;;;4972637;28;20207;-84
2024/03/01 00:05:39;;;;;;;26.33;17.02;;;;;;;;;;4973855;28;20265;-84
2024/03/01 00:08:08;;;;;;;25.58;16.05;;;;;;;;;;4971552;28;20203;-84
2024/03/01 00:10:37;;;;;;;22.17;15.88;;;;;;;;;;4976173;28;20203;-84
2024/03/01 00:13:09;;;;;;;26.60;16.77;;;;;;;;;;4968970;28;20200;-84
2024/03/01 00:15:39;;;;;;;24.40;15.93;;;;;;;;;;4977963;28;20198;-84
2024/03/01 00:18:08;;;;;;;22.40;14.52;;;;;;;;;;4975112;28;20270;-85
2024/03/01 00:20:36;;;;;;;22.95;13.50;;;;;;;;;;4957839;28;20230;-84
2024/03/01 00:23:05;;;;;;;22.10;15.57;;;;;;;;;;4972466;28;20212;-85
2024/03/01 00:25:33;;;;;;;22.63;15.00;;;;;;;;;;4971839;28;20207;-84
2024/03/01 00:28:03;;;;;;;22.60;15.35;;;;;;;;;;4958370;28;20771;-84
2024/03/01 00:30:32;;;;;;;19.58;14.10;;;;;;;;;;4958874;28;20206;-84
2024/03/01 00:33:02;;;;;;;23.85;15.30;;;;;;;;;;4976793;28;20226;-84
2024/03/01 00:35:31;;;;;;;20.05;14.50;;;;;;;;;;4971473;28;20702;-84
2024/03/01 00:38:00;;;;;;;18.95;15.10;;;;;;;;;;4971540;28;20800;-85
2024/03/01 00:40:28;;;;;;;21.63;16.08;;;;;;;;;;4954950;28;20220;-83
2024/03/01 00:42:57;;;;;;;26.25;17.15;;;;;;;;;;4939065;28;20203;-85
2024/03/01 00:45:27;;;;;;;22.35;15.32;;;;;;;;;;4971223;28;20210;-84
2024/03/01 00:47:55;;;;;;;19.17;14.20;;;;;;;;;;4977290;28;20230;-84
2024/03/01 00:50:24;;;;;;;22.77;16.48;;;;;;;;;;4982538;28;20254;-85
2024/03/01 00:52:52;;;;;;;25.35;16.08;;;;;;;;;;4978723;28;20208;-85
2024/03/01 00:55:21;;;;;;;22.70;14.85;;;;;;;;;;4968256;28;20212;-85
2024/03/01 00:57:52;;;;;;;25.92;15.60;;;;;;;;;;4971920;28;20220;-85
2024/03/01 01:00:20;;;;;;;26.05;17.40;;;;;;;;;;4972260;28;20211;-85
2024/03/01 01:02:50;;;;;;;25.17;16.65;;;;;;;;;;4971751;28;20215;-85
2024/03/01 01:05:18;;;;;;;23.45;16.65;;;;;;;;;;4972779;28;20654;-85
2024/03/01 01:07:47;;;;;;;31.25;17.40;;;;;;;;;;4975076;28;20218;-84
2024/03/01 01:10:15;;;;;;;24.13;16.50;;;;;;;;;;4958248;28;20207;-84
2024/03/01 01:12:43;;;;;;;29.17;19.10;;;;;;;;;;4978637;28;20211;-84
2024/03/01 01:15:12;;;;;;;27.48;17.55;;;;;;;;;;4958474;28;20208;-84
2024/03/01 01:17:40;;;;;;;24.65;18.15;;;;;;;;;;4959836;28;20217;-84
2024/03/01 01:20:11;;;;;;;28.17;17.40;;;;;;;;;;4978332;28;20203;-84
2024/03/01 01:22:39;;;;;;;29.75;18.45;;;;;;;;;;4976618;28;20219;-84
2024/03/01 01:25:08;;;;;;;30.60;18.45;;;;;;;;;;4976800;28;20203;-84
2024/03/01 01:27:38;;;;;;;21.65;15.20;;;;;;;;;;4975663;28;20229;-83
2024/03/01 01:30:07;;;;;;;25.27;17.42;;;;;;;;;;4975939;28;20210;-84
2024/03/01 01:32:35;;;;;;;26.15;17.98;;;;;;;;;;4974599;28;21422;-84
2024/03/01 01:35:04;;;;;;;27.33;18.02;;;;;;;;;;4975069;28;20738;-84
2024/03/01 01:37:33;;;;;;;22.52;16.42;;;;;;;;;;4974942;28;20207;-84
2024/03/01 01:40:02;;;;;;;24.23;17.02;;;;;;;;;;4975064;28;20213;-84
2024/03/01 01:42:30;;;;;;;24.52;17.08;;;;;;;;;;4974342;28;20265;-84
2024/03/01 01:47:51;;;;;;;20.55;15.85;;;;;;;;;;4971085;28;20257;-84
2024/03/01 01:50:19;;;;;;;27.58;16.75;;;;;;;;;;4974812;28;20673;-84
2024/03/01 01:52:49;;;;;;;25.67;17.35;;;;;;;;;;4974664;28;20207;-84
2024/03/01 01:55:17;;;;;;;23.67;16.40;;;;;;;;;;4974706;28;20667;-84
2024/03/01 01:57:46;;;;;;;29.38;16.65;;;;;;;;;;4957244;28;20207;-84
2024/03/01 02:00:15;;;;;;;22.70;16.13;;;;;;;;;;4974155;28;20214;-84
2024/03/01 02:02:45;;;;;;;20.70;14.15;;;;;;;;;;4974208;28;20227;-84
2024/03/01 02:05:14;;;;;;;21.80;15.68;;;;;;;;;;4986806;28;20195;-83
2024/03/01 02:07:42;;;;;;;22.88;15.35;;;;;;;;;;4980129;28;20195;-84
2024/03/01 02:10:17;;;;;;;26.30;17.05;;;;;;;;;;4976360;28;20230;-84
2024/03/01 02:13:00;;;;;;;22.67;14.85;;;;;;;;;;4956281;28;20207;-84
2024/03/01 02:15:28;;;;;;;19.95;14.90;;;;;;;;;;4957165;28;20203;-84
2024/03/01 02:17:57;;;;;;;23.50;17.27;;;;;;;;;;4972638;28;20199;-85
2024/03/01 02:20:27;;;;;;;21.75;15.88;;;;;;;;;;4977846;28;20204;-84
2024/03/01 02:22:59;;;;;;;26.35;18.58;;;;;;;;;;4940883;28;20223;-83
2024/03/01 02:25:28;;;;;;;25.58;18.23;;;;;;;;;;4970565;28;20673;-83
2024/03/01 02:27:56;;;;;;;30.33;19.05;;;;;;;;;;4974155;28;20211;-84
2024/03/01 02:30:24;;;;;;;26.92;17.92;;;;;;;;;;4974464;28;20207;-84
2024/03/01 02:32:53;;;;;;;24.33;17.70;;;;;;;;;;4975639;28;20218;-84
2024/03/01 02:35:21;;;;;;;26.77;16.63;;;;;;;;;;4973612;28;20239;-84
2024/03/01 02:37:50;;;;;;;26.80;17.33;;;;;;;;;;4958660;28;20198;-84
2024/03/01 02:40:18;;;;;;;23.98;17.35;;;;;;;;;;4980148;28;20619;-84
2024/03/01 02:42:48;;;;;;;23.90;16.58;;;;;;;;;;4975267;28;20223;-84
2024/03/01 02:45:17;;;;;;;27.55;17.08;;;;;;;;;;4974060;28;20651;-84
2024/03/01 02:47:45;;;;;;;25.45;17.23;;;;;;;;;;4957065;28;20215;-84
2024/03/01 02:50:14;;;;;;;26.77;17.13;;;;;;;;;;4974580;28;20221;-84
2024/03/01 02:52:42;;;;;;;25.35;17.35;;;;;;;;;;4957363;28;20234;-84
2024/03/01 02:55:10;;;;;;;22.70;15.63;;;;;;;;;;4959857;28;20215;-84
2024/03/01 02:57:39;;;;;;;20.48;15.38;;;;;;;;;;4959836;28;20206;-84
2024/03/01 03:00:11;;;;;;;24.48;16.95;;;;;;;;;;4976356;28;20218;-84
2024/03/01 03:02:40;;;;;;;33.40;19.15;;;;;;;;;;4973812;28;20633;-83
2024/03/01 03:05:09;;;;;;;30.75;17.42;;;;;;;;;;4973623;28;20261;-83
2024/03/01 03:07:38;;;;;;;24.50;16.95;;;;;;;;;;4956896;28;20674;-84
2024/03/01 03:10:07;;;;;;;24.40;16.52;;;;;;;;;;4971719;28;20682;-84
2024/03/01 03:12:35;;;;;;;26.10;15.30;;;;;;;;;;4970200;28;20210;-84
2024/03/01 03:15:08;;;;;;;26.73;17.25;;;;;;;;;;4976548;28;20211;-84
2024/03/01 03:17:38;;;;;;;22.63;15.80;;;;;;;;;;4976094;28;20198;-84
2024/03/01 03:20:10;;;;;;;29.25;22.10;;;;;;;;;;4973364;28;20667;-84
2024/03/01 03:22:40;;;;;;;24.13;16.92;;;;;;;;;;4974076;28;20235;-84
2024/03/01 03:25:09;;;;;;;22.98;17.63;;;;;;;;;;4983079;28;20266;-84
2024/03/01 03:27:42;;;;;;;22.88;16.23;;;;;;;;;;4974940;28;21028;-83
2024/03/01 03:30:16;;;;;;;29.80;17.60;;;;;;;;;;4956274;28;20207;-85
2024/03/01 03:32:46;;;;;;;25.00;16.77;;;;;;;;;;4977572;28;20573;-84
2024/03/01 03:35:14;;;;;;;24.25;16.42;;;;;;;;;;4971742;28;20718;-84
2024/03/01 03:37:42;;;;;;;26.48;17.90;;;;;;;;;;4946210;28;20213;-84
2024/03/01 03:40:14;;;;;;;79.03;46.92;;;;;;;;;;4973303;28;20217;-84
2024/03/01 03:42:43;;;;;;;24.50;17.77;;;;;;;;;;4973546;28;20694;-84
2024/03/01 03:45:12;;;;;;;29.52;16.77;;;;;;;;;;4977112;28;20209;-84
2024/03/01 03:47:41;;;;;;;24.58;17.08;;;;;;;;;;4976166;28;20703;-83
2024/03/01 03:50:13;;;;;;;30.77;18.65;;;;;;;;;;4973087;28;20211;-83
2024/03/01 03:52:42;;;;;;;62.58;35.20;;;;;;;;;;4955654;28;20207;-84
2024/03/01 03:55:10;;;;;;;36.50;20.63;;;;;;;;;;4972403;28;20273;-84
2024/03/01 03:57:39;;;;;;;26.10;17.40;;;;;;;;;;4976919;28;20275;-82
2024/03/01 04:00:09;;;;;;;26.30;16.98;;;;;;;;;;4977078;28;20199;-83
2024/03/01 04:02:38;;;;;;;25.48;17.20;;;;;;;;;;4978512;28;20710;-84
2024/03/01 04:05:07;;;;;;;25.30;18.02;;;;;;;;;;4976908;28;20207;-83
2024/03/01 04:07:37;;;;;;;28.70;17.95;;;;;;;;;;4955219;28;20690;-83
2024/03/01 04:10:06;;;;;;;25.17;17.55;;;;;;;;;;4972915;28;20204;-84
2024/03/01 04:12:36;;;;;;;23.67;15.95;;;;;;;;;;4958191;28;20219;-82
2024/03/01 04:15:05;;;;;;;29.08;16.77;;;;;;;;;;4974253;28;20211;-83
2024/03/01 04:17:34;;;;;;;21.13;16.40;;;;;;;;;;4975705;28;20675;-83
2024/03/01 04:20:04;;;;;;;28.73;16.58;;;;;;;;;;4977924;28;20663;-83
2024/03/01 04:22:32;;;;;;;33.33;17.92;;;;;;;;;;4960178;28;20234;-83
2024/03/01 04:25:02;;;;;;;25.48;16.95;;;;;;;;;;4978648;28;20265;-83
2024/03/01 04:27:31;;;;;;;24.48;17.10;;;;;;;;;;4972643;28;20215;-84
2024/03/01 04:30:00;;;;;;;25.17;17.25;;;;;;;;;;4975822;28;20199;-83
2024/03/01 04:32:28;;;;;;;24.95;16.75;;;;;;;;;;4958090;28;20203;-83
2024/03/01 04:34:58;;;;;;;25.42;16.55;;;;;;;;;;4978325;28;20236;-83
2024/03/01 04:37:26;;;;;;;23.92;18.08;;;;;;;;;;4973154;28;20199;-83
2024/03/01 04:39:55;;;;;;;23.63;16.55;;;;;;;;;;4970346;28;20208;-82
2024/03/01 04:42:25;;;;;;;26.08;17.40;;;;;;;;;;4959200;28;20223;-83
2024/03/01 04:44:53;;;;;;;25.60;17.35;;;;;;;;;;4983315;28;20662;-84
2024/03/01 04:47:21;;;;;;;28.35;18.45;;;;;;;;;;4981945;28;20202;-84
2024/03/01 04:49:50;;;;;;;29.30;17.85;;;;;;;;;;4975688;28;20210;-84
2024/03/01 04:52:18;;;;;;;27.08;18.80;;;;;;;;;;4975634;28;20234;-84
2024/03/01 04:54:47;;;;;;;27.65;18.35;;;;;;;;;;4980273;28;20207;-84
2024/03/01 04:57:16;;;;;;;28.55;18.45;;;;;;;;;;4978322;28;20203;-85
2024/03/01 04:59:45;;;;;;;27.20;18.10;;;;;;;;;;4958779;28;20203;-85
2024/03/01 05:02:14;;;;;;;22.92;17.85;;;;;;;;;;4965050;28;20285;-84
2024/03/01 05:04:42;;;;;;;23.92;17.88;;;;;;;;;;4968617;28;20258;-85
2024/03/01 05:07:10;;;;;;;26.55;17.67;;;;;;;;;;4980942;28;20692;-84
2024/03/01 05:09:39;;;;;;;35.55;22.15;;;;;;;;;;4975871;28;20693;-84
2024/03/01 05:12:13;;;;;;;32.45;21.17;;;;;;;;;;4975644;28;20203;-84
2024/03/01 05:14:44;;;;;;;35.55;22.08;;;;;;;;;;4982153;28;20666;-84
2024/03/01 05:17:16;;;;;;;39.05;23.58;;;;;;;;;;4979202;28;20209;-84
2024/03/01 05:19:44;;;;;;;38.63;25.48;;;;;;;;;;4943361;28;20203;-85
2024/03/01 05:22:13;;;;;;;39.53;25.20;;;;;;;;;;4974078;28;20650;-83
2024/03/01 05:24:41;;;;;;;39.80;24.23;;;;;;;;;;4975299;28;20219;-83
2024/03/01 05:27:13;;;;;;;37.22;25.35;;;;;;;;;;4976484;28;20709;-85
2024/03/01 05:29:41;;;;;;;40.13;25.30;;;;;;;;;;4986188;28;20225;-83
2024/03/01 05:32:10;;;;;;;39.85;25.65;;;;;;;;;;4982414;28;20223;-82
2024/03/01 05:34:41;;;;;;;37.10;23.40;;;;;;;;;;4957510;28;20282;-85
2024/03/01 05:37:09;;;;;;;42.22;26.10;;;;;;;;;;4959974;28;20199;-85
2024/03/01 05:39:38;;;;;;;41.22;24.85;;;;;;;;;;4980278;28;20586;-84
2024/03/01 05:42:07;;;;;;;41.17;26.23;;;;;;;;;;4953832;28;20214;-85
2024/03/01 05:44:35;;;;;;;40.15;25.98;;;;;;;;;;4966323;28;20285;-84
2024/03/01 05:47:04;;;;;;;50.35;24.25;;;;;;;;;;4978020;28;20236;-82
2024/03/01 05:49:32;;;;;;;38.35;25.77;;;;;;;;;;4978950;28;20203;-84
2024/03/01 05:52:03;;;;;;;38.67;24.73;;;;;;;;;;4977881;28;20207;-83
2024/03/01 05:54:31;;;;;;;36.80;23.70;;;;;;;;;;4975765;28;20214;-84
2024/03/01 05:56:59;;;;;;;43.80;26.75;;;;;;;;;;4964099;28;20207;-84
2024/03/01 05:59:28;;;;;;;37.97;24.63;;;;;;;;;;4979448;28;20211;-93
2024/03/01 06:01:56;;;;;;;42.63;25.55;;;;;;;;;;4985893;28;20671;-92
2024/03/01 06:04:24;;;;;;;40.08;25.75;;;;;;;;;;4973074;28;20227;-92
2024/03/01 06:06:53;;;;;;;42.13;26.00;;;;;;;;;;4965886;28;20213;-84
2024/03/01 06:09:23;;;;;;;41.40;26.33;;;;;;;;;;4978390;28;20225;-95
2024/03/01 06:11:51;;;;;;;40.10;26.63;;;;;;;;;;4958626;28;20273;-89
2024/03/01 06:14:19;;;;;;;37.70;24.95;;;;;;;;;;4979163;28;20210;-88
2024/03/01 06:16:48;;;;;;;46.55;26.92;;;;;;;;;;4958514;28;20218;-87
2024/03/01 06:19:18;;;;;;;43.15;25.73;;;;;;;;;;4977166;28;20210;-84
2024/03/01 06:21:46;;;;;;;40.78;24.15;;;;;;;;;;4974651;28;20199;-93
2024/03/01 06:24:15;;;;;;;42.25;24.83;;;;;;;;;;4982623;28;20223;-88
2024/03/01 06:26:47;;;;;;;46.10;27.40;;;;;;;;;;4983125;28;20207;-83
2024/03/01 06:29:16;;;;;;;48.70;25.63;;;;;;;;;;4975549;28;20217;-88
2024/03/01 06:31:44;;;;;;;37.70;25.33;;;;;;;;;;4958978;28;20216;-81
2024/03/01 06:34:13;;;;;;;33.97;22.60;;;;;;;;;;4979933;28;20199;-90
2024/03/01 06:36:41;;;;;;;37.55;25.27;;;;;;;;;;4958407;28;20270;-90
2024/03/01 06:39:10;;;;;;;33.42;23.10;;;;;;;;;;4962086;28;20332;-88
2024/03/01 06:41:38;;;;;;;35.55;23.10;;;;;;;;;;4976511;28;20249;-83
2024/03/01 06:44:09;;;;;;;41.95;26.55;;;;;;;;;;4950656;28;20226;-84
2024/03/01 06:46:38;;;;;;;39.85;23.80;;;;;;;;;;4969363;28;20198;-87
2024/03/01 06:49:06;;;;;;;40.03;25.02;;;;;;;;;;4979481;28;20214;-84
2024/03/01 06:51:36;;;;;;;38.17;24.52;;;;;;;;;;4976959;28;20215;-88
2024/03/01 06:54:07;;;;;;;34.28;22.38;;;;;;;;;;4976957;28;20207;-86
2024/03/01 06:56:41;;;;;;;36.67;23.88;;;;;;;;;;4975109;28;20688;-87
2024/03/01 06:59:11;;;;;;;33.22;20.80;;;;;;;;;;4977245;28;20214;-84
2024/03/01 07:01:39;;;;;;;32.83;22.75;;;;;;;;;;4971959;28;20214;-87
2024/03/01 07:04:08;;;;;;;35.90;24.27;;;;;;;;;;4973627;28;20717;-81
2024/03/01 07:06:37;;;;;;;40.53;25.02;;;;;;;;;;4970823;28;20269;-84
2024/03/01 07:09:05;;;;;;;31.08;21.02;;;;;;;;;;4987220;28;20717;-89
2024/03/01 07:11:35;;;;;;;32.20;21.42;;;;;;;;;;4961034;28;20203;-86
2024/03/01 07:14:03;;;;;;;30.23;21.33;;;;;;;;;;4969410;28;20211;-85
2024/03/01 07:16:33;;;;;;;34.83;21.33;;;;;;;;;;4960057;28;20210;-88
2024/03/01 07:19:02;;;;;;;39.20;24.08;;;;;;;;;;4972002;28;20239;-86
2024/03/01 07:21:30;;;;;;;33.00;22.88;;;;;;;;;;4973937;28;20679;-86
2024/03/01 07:23:59;;;;;;;33.35;24.10;;;;;;;;;;4959016;28;20305;-86
2024/03/01 07:26:27;;;;;;;33.75;22.02;;;;;;;;;;4968606;28;20688;-85
2024/03/01 07:28:55;;;;;;;36.83;23.50;;;;;;;;;;4973530;28;20222;-86
2024/03/01 07:31:24;;;;;;;33.90;20.85;;;;;;;;;;4978765;28;20208;-83
2024/03/01 07:33:55;;;;;;;30.58;21.38;;;;;;;;;;4975446;28;20203;-86
2024/03/01 07:36:24;;;;;;;30.35;20.77;;;;;;;;;;4974304;28;20725;-86
2024/03/01 07:38:53;;;;;;;33.60;19.23;;;;;;;;;;4966837;28;20214;-91
2024/03/01 07:41:21;;;;;;;32.28;21.25;;;;;;;;;;4959287;28;20203;-90
2024/03/01 07:43:52;;;;;;;30.25;20.33;;;;;;;;;;4971794;28;20223;-91
2024/03/01 07:46:20;;;;;;;30.35;20.10;;;;;;;;;;4983635;28;20646;-87
2024/03/01 07:48:49;;;;;;;28.65;19.55;;;;;;;;;;4961706;28;20199;-91
2024/03/01 07:51:20;;;;;;;27.70;19.17;;;;;;;;;;4972617;28;20315;-89
2024/03/01 07:53:48;;;;;;;26.85;18.02;;;;;;;;;;4986519;28;20202;-87
2024/03/01 07:56:19;;;;;;;28.80;19.80;;;;;;;;;;4977014;28;20203;-87
2024/03/01 07:58:48;;;;;;;33.97;19.55;;;;;;;;;;4982606;28;20782;-87
2024/03/01 08:01:17;;;;;;;26.83;18.70;;;;;;;;;;4979733;28;20211;-85
2024/03/01 08:03:47;;;;;;;29.88;20.48;;;;;;;;;;4985304;28;20226;-87
2024/03/01 08:06:15;;;;;;;31.05;20.15;;;;;;;;;;4978983;28;20294;-87
2024/03/01 08:08:52;;;;;;;31.00;19.17;;;;;;;;;;4967240;28;20218;-89
2024/03/01 08:11:35;;;;;;;24.25;17.67;;;;;;;;;;4978174;28;20202;-87
2024/03/01 08:14:06;;;;;;;28.65;19.38;;;;;;;;;;4961506;28;20209;-87
2024/03/01 08:16:35;;;;;;;25.58;18.08;;;;;;;;;;4989212;28;20363;-92
2024/03/01 08:19:04;;;;;;;30.65;17.58;;;;;;;;;;4987442;28;20329;-88
2024/03/01 08:21:33;;;;;;;25.40;18.15;;;;;;;;;;4979441;28;20681;-86
2024/03/01 08:24:06;;;;;;;30.05;18.67;;;;;;;;;;4967120;28;20222;-86
2024/03/01 08:26:36;;;;;;;23.23;16.65;;;;;;;;;;4968549;28;20307;-88
2024/03/01 08:29:04;;;;;;;20.67;15.82;;;;;;;;;;4970336;28;20326;-89
2024/03/01 08:31:37;;;;;;;29.38;17.83;;;;;;;;;;4964859;28;20303;-91
2024/03/01 08:34:10;;;;;;;23.42;15.60;;;;;;;;;;4987336;28;20281;-89
2024/03/01 08:36:42;;;;;;;19.92;16.55;;;;;;;;;;4984922;28;20207;-88
2024/03/01 08:39:17;;;;;;;19.23;15.02;;;;;;;;;;4964087;28;20254;-87
2024/03/01 08:41:48;;;;;;;24.38;15.38;;;;;;;;;;4971248;28;20282;-86
2024/03/01 08:44:37;;;;;;;19.00;13.30;;;;;;;;;;4990505;28;20422;-86
2024/03/01 08:47:06;;;;;;;14.73;12.48;;;;;;;;;;4992647;28;20731;-87
2024/03/01 08:49:59;;;;;;;15.15;12.07;;;;;;;;;;4970205;28;20243;-89
2024/03/01 08:52:37;;;;;;;13.30;10.23;;;;;;;;;;4954773;28;20293;-86
2024/03/01 08:55:21;;;;;;;16.50;10.40;;;;;;;;;;4980932;28;20225;-88
2024/03/01 08:57:50;;;;;;;12.60;10.00;;;;;;;;;;4985701;28;20697;-87
2024/03/01 09:00:33;;;;;;;12.50;10.70;;;;;;;;;;4987652;28;20290;-89
2024/03/01 09:03:01;;;;;;;14.43;10.30;;;;;;;;;;4993274;28;20294;-91
2024/03/01 09:05:32;;;;;;;11.82;10.10;;;;;;;;;;4962888;28;20230;-91
2024/03/01 09:08:01;;;;;;;11.85;10.38;;;;;;;;;;4984469;28;20199;-90
2024/03/01 09:10:34;;;;;;;14.07;10.00;;;;;;;;;;4965844;28;20239;-92
2024/03/01 09:13:08;;;;;;;12.02;10.18;;;;;;;;;;4981251;28;20199;-91
2024/03/01 09:15:39;;;;;;;10.98;9.27;;;;;;;;;;4980566;28;20214;-91
2024/03/01 09:18:08;;;;;;;10.27;8.82;;;;;;;;;;4964322;28;20199;-88
2024/03/01 09:20:39;;;;;;;11.65;8.15;;;;;;;;;;4987107;28;20255;-88
2024/03/01 09:23:08;;;;;;;8.48;6.97;;;;;;;;;;4981819;28;20195;-90
2024/03/01 09:25:58;;;;;;;10.50;8.10;;;;;;;;;;4979854;28;20227;-92
2024/03/01 09:28:29;;;;;;;7.75;6.95;;;;;;;;;;4969783;28;20267;-93
2024/03/01 09:31:27;;;;;;;7.07;6.10;;;;;;;;;;4235770;26;20247;-92
2024/03/01 09:33:57;;;;;;;6.55;6.05;;;;;;;;;;4961311;28;20220;-90
2024/03/01 09:36:25;;;;;;;6.30;5.70;;;;;;;;;;4928389;29;20733;-85
2024/03/01 09:38:54;;;;;;;5.50;5.00;;;;;;;;;;4948911;29;20218;-88
2024/03/01 09:41:29;;;;;;;6.82;6.10;;;;;;;;;;4955824;28;20215;-85
2024/03/01 09:44:05;;;;;;;6.60;6.05;;;;;;;;;;4957219;29;20205;-86
2024/03/01 09:46:38;;;;;;;5.70;5.30;;;;;;;;;;4956483;29;20215;-87
2024/03/01 09:49:12;;;;;;;6.07;5.13;;;;;;;;;;4948086;29;20216;-86
2024/03/01 09:51:45;;;;;;;6.55;5.95;;;;;;;;;;4949031;29;20214;-85
2024/03/01 09:54:22;;;;;;;7.28;6.53;;;;;;;;;;4953485;28;20584;-86
2024/03/01 09:56:58;;;;;;;6.30;5.80;;;;;;;;;;4963694;28;20238;-84
2024/03/01 09:59:34;;;;;;;6.65;6.05;;;;;;;;;;4962637;28;20219;-87
2024/03/01 10:02:06;;;;;;;6.65;6.10;;;;;;;;;;4982116;28;20202;-91
2024/03/01 10:04:40;;;;;;;7.55;6.85;;;;;;;;;;4980031;28;20235;-90
2024/03/01 10:07:12;;;;;;;7.00;6.40;;;;;;;;;;4966182;28;20647;-88
2024/03/01 10:09:56;;;;;;;5.90;5.40;;;;;;;;;;4980714;28;20219;-89
2024/03/01 10:12:44;;;;;;;7.07;6.47;;;;;;;;;;4971950;28;20584;-87
2024/03/01 10:15:18;;;;;;;6.70;6.20;;;;;;;;;;4971919;28;20207;-87
2024/03/01 10:17:51;;;;;;;6.40;5.87;;;;;;;;;;4981405;28;20207;-89
2024/03/01 10:20:25;;;;;;;7.40;6.90;;;;;;;;;;4962654;28;20585;-88
2024/03/01 10:23:00;;;;;;;6.20;5.80;;;;;;;;;;4978566;28;20211;-89
2024/03/01 10:25:40;;;;;;;6.80;6.30;;;;;;;;;;4983377;28;21256;-85
2024/03/01 10:28:15;;;;;;;6.13;5.73;;;;;;;;;;4958699;28;21175;-91
2024/03/01 10:30:53;;;;;;;5.85;5.45;;;;;;;;;;4967843;28;21409;-86
2024/03/01 10:33:26;;;;;;;5.85;5.50;;;;;;;;;;4964335;28;20249;-89
2024/03/01 10:36:00;;;;;;;5.85;5.47;;;;;;;;;;4963375;28;20210;-89
2024/03/01 10:38:33;;;;;;;5.22;4.88;;;;;;;;;;4975036;28;20217;-90
2024/03/01 10:41:06;;;;;;;6.53;5.10;;;;;;;;;;4973462;28;20671;-89
2024/03/01 10:43:42;;;;;;;4.55;4.25;;;;;;;;;;4971344;28;20862;-85
2024/03/01 10:46:13;;;;;;;4.70;4.40;;;;;;;;;;4981491;28;20242;-91
2024/03/01 10:48:48;;;;;;;5.53;5.13;;;;;;;;;;4982024;28;20287;-89
2024/03/01 10:51:20;;;;;;;5.15;4.75;;;;;;;;;;4977671;28;20199;-91
2024/03/01 10:53:50;;;;;;;6.03;5.50;;;;;;;;;;4977979;28;20207;-91
2024/03/01 10:56:20;;;;;;;7.65;5.22;;;;;;;;;;4980804;28;20302;-91
2024/03/01 10:58:54;;;;;;;6.03;5.53;;;;;;;;;;4982890;28;20270;-87
2024/03/01 11:04:45;;;;;;;5.40;5.00;;;;;;;;;;4904170;29;20777;-85
2024/03/01 11:07:16;;;;;;;6.85;4.85;;;;;;;;;;4906458;29;20213;-90
2024/03/01 11:09:49;;;;;;;5.53;5.07;;;;;;;;;;4900262;29;20216;-90
2024/03/01 11:12:23;;;;;;;4.13;3.92;;;;;;;;;;4895471;29;20213;-89
2024/03/01 11:14:53;;;;;;;5.50;4.40;;;;;;;;;;4901643;29;20301;-88
2024/03/01 11:17:25;;;;;;;4.28;4.00;;;;;;;;;;4907828;29;20299;-93
2024/03/01 11:19:58;;;;;;;4.85;4.45;;;;;;;;;;4886465;29;20297;-88
2024/03/01 11:22:31;;;;;;;4.47;4.18;;;;;;;;;;4903090;29;20844;-92
2024/03/01 11:43:48;;;;;;;4.40;4.20;;;;;;;;;;4729514;23;22095;31
2024/03/01 11:46:27;;;;;;;3.70;3.60;;;;;;;;;;4895979;29;20297;-84
2024/03/01 11:51:58;;;;;;;4.10;3.72;;;;;;;;;;5491937;23;20248;-92
2024/03/01 11:54:43;;;;;;;4.00;3.80;;;;;;;;;;4937943;29;20711;-93
2024/03/01 12:00:34;;;;;;;3.90;3.80;;;;;;;;;;4906892;29;20247;-90
2024/03/01 12:03:36;;;;;;;3.83;3.72;;;;;;;;;;4929338;29;20249;-93
2024/03/01 12:06:11;;;;;;;3.40;3.30;;;;;;;;;;4880153;29;20242;-92
2024/03/01 12:08:54;;;;;;;3.55;3.45;;;;;;;;;;4844048;29;20263;-90
2024/03/01 12:11:35;;;;;;;4.55;4.35;;;;;;;;;;4889734;29;20272;-89
2024/03/01 12:14:09;;;;;;;4.13;4.03;;;;;;;;;;4940263;29;20794;-90
2024/03/01 12:16:44;;;;;;;5.15;4.85;;;;;;;;;;4955376;29;20200;-91
2024/03/01 12:19:17;;;;;;;4.32;4.13;;;;;;;;;;4963448;29;20196;-91
2024/03/01 12:22:08;;;;;;;3.58;3.47;;;;;;;;;;4943170;29;20299;-88
2024/03/01 12:24:39;;;;;;;3.70;3.60;;;;;;;;;;4971627;29;20255;-90
2024/03/01 12:27:12;;;;;;;3.65;3.55;;;;;;;;;;4972031;29;20215;-87
2024/03/01 12:29:46;;;;;;;4.22;4.03;;;;;;;;;;4966831;29;20198;-88
2024/03/01 12:32:16;;;;;;;3.83;3.73;;;;;;;;;;4966447;29;20223;-90
2024/03/01 12:34:53;;;;;;;4.20;4.10;;;;;;;;;;4967833;29;20598;-88
2024/03/01 12:37:34;;;;;;;4.47;4.27;;;;;;;;;;4966482;29;20593;-88
2024/03/01 12:40:15;;;;;;;4.23;4.13;;;;;;;;;;4965997;29;20637;-88
2024/03/01 12:42:52;;;;;;;4.57;4.47;;;;;;;;;;4955969;29;20726;-90
2024/03/01 12:45:27;;;;;;;5.17;4.97;;;;;;;;;;4957940;28;20718;-84
2024/03/01 12:48:03;;;;;;;4.23;4.13;;;;;;;;;;4952738;28;20643;-85
2024/03/01 12:50:36;;;;;;;4.60;4.50;;;;;;;;;;4958333;29;21231;-86
2024/03/01 12:53:17;;;;;;;4.75;4.65;;;;;;;;;;4961736;29;20678;-84
2024/03/01 12:55:48;;;;;;;4.80;4.70;;;;;;;;;;4950992;29;20249;-81
2024/03/01 12:58:22;;;;;;;5.70;5.50;;;;;;;;;;4946486;29;20362;-81
2024/03/01 13:00:52;;;;;;;5.45;5.25;;;;;;;;;;4951827;28;20609;-81
2024/03/01 13:03:28;;;;;;;5.80;5.50;;;;;;;;;;4924040;29;20215;-82
2024/03/01 13:05:56;;;;;;;5.70;5.50;;;;;;;;;;4958235;29;20748;-81
2024/03/01 13:08:30;;;;;;;5.22;5.03;;;;;;;;;;4954790;29;20223;-83
2024/03/01 13:10:59;;;;;;;5.00;4.90;;;;;;;;;;4955788;29;20655;-84
2024/03/01 13:13:36;;;;;;;6.60;6.40;;;;;;;;;;4956525;28;20240;-85
2024/03/01 13:16:07;;;;;;;6.30;6.10;;;;;;;;;;4961745;29;20688;-85
2024/03/01 13:18:42;;;;;;;6.00;5.80;;;;;;;;;;4956738;29;20644;-84
2024/03/01 13:21:15;;;;;;;5.70;5.50;;;;;;;;;;4959206;29;20620;-82
2024/03/01 13:23:51;;;;;;;5.40;5.30;;;;;;;;;;4958410;28;20640;-84
2024/03/01 13:26:31;;;;;;;5.70;5.50;;;;;;;;;;4958192;28;21195;-81
2024/03/01 13:29:03;;;;;;;5.80;5.60;;;;;;;;;;4955465;29;20626;-80
2024/03/01 13:31:35;;;;;;;5.50;5.40;;;;;;;;;;4955686;28;21182;-80
2024/03/01 13:34:07;;;;;;;5.67;5.47;;;;;;;;;;4955674;29;20598;-80
2024/03/01 13:36:36;;;;;;;9.70;5.73;;;;;;;;;;4955561;29;20662;-82
2024/03/01 13:39:14;;;;;;;5.93;5.63;;;;;;;;;;4958967;29;20641;-90
2024/03/01 13:41:50;;;;;;;5.83;5.60;;;;;;;;;;4960764;29;20723;-84
2024/03/01 13:44:23;;;;;;;6.22;6.03;;;;;;;;;;4960012;29;20669;-80
2024/03/01 13:46:58;;;;;;;6.10;5.90;;;;;;;;;;4937256;29;20243;-82
2024/03/01 13:49:31;;;;;;;6.37;6.17;;;;;;;;;;4962199;28;20725;-86
2024/03/01 13:52:00;;;;;;;6.40;6.20;;;;;;;;;;4964756;28;20673;-79
2024/03/01 13:54:33;;;;;;;6.57;6.37;;;;;;;;;;4956566;29;20707;-80
2024/03/01 13:57:03;;;;;;;6.93;6.47;;;;;;;;;;4957090;29;20604;-80
2024/03/01 13:59:31;;;;;;;6.53;6.33;;;;;;;;;;4949588;29;20690;-80
2024/03/01 14:02:00;;;;;;;6.23;5.93;;;;;;;;;;4961376;29;20714;-81
2024/03/01 14:04:29;;;;;;;10.80;10.27;;;;;;;;;;4942485;29;20626;-80
2024/03/01 14:06:58;;;;;;;13.70;13.00;;;;;;;;;;4959518;29;20696;-81
2024/03/01 14:09:27;;;;;;;8.10;7.63;;;;;;;;;;4949660;29;20681;-85
2024/03/01 14:11:57;;;;;;;8.67;8.37;;;;;;;;;;4960982;28;20777;-79
2024/03/01 14:14:25;;;;;;;10.73;10.23;;;;;;;;;;4955300;29;20630;-80
2024/03/01 14:16:53;;;;;;;12.73;12.03;;;;;;;;;;4959194;29;20623;-79
2024/03/01 14:19:22;;;;;;;12.03;11.33;;;;;;;;;;4954456;29;20667;-79
2024/03/01 14:21:53;;;;;;;9.00;8.60;;;;;;;;;;4953310;28;20631;-81
2024/03/01 14:24:22;;;;;;;9.43;9.07;;;;;;;;;;4952456;28;20618;-82
2024/03/01 14:26:50;;;;;;;8.53;8.23;;;;;;;;;;4954270;29;21204;-86
2024/03/01 14:29:22;;;;;;;6.90;6.80;;;;;;;;;;4956162;28;21040;-82
2024/03/01 14:32:08;;;;;;;7.90;7.60;;;;;;;;;;4917622;29;20613;-82
2024/03/01 14:34:36;;;;;;;8.80;8.50;;;;;;;;;;4968643;28;20685;-82
2024/03/01 14:37:05;;;;;;;8.17;7.97;;;;;;;;;;4964981;28;20786;-81
2024/03/01 14:39:33;;;;;;;8.33;8.03;;;;;;;;;;4961454;29;20723;-81
2024/03/01 14:42:02;;;;;;;7.33;7.13;;;;;;;;;;4955594;28;20647;-82
2024/03/01 14:44:32;;;;;;;7.57;7.27;;;;;;;;;;4954063;29;21379;-82
2024/03/01 14:47:00;;;;;;;7.27;7.07;;;;;;;;;;4961291;29;21296;-82
2024/03/01 14:49:34;;;;;;;8.10;7.80;;;;;;;;;;4947121;29;20650;-82
2024/03/01 14:52:09;;;;;;;7.27;7.07;;;;;;;;;;4964578;28;20616;-83
2024/03/01 14:54:38;;;;;;;7.10;6.90;;;;;;;;;;4961769;29;20677;-82
2024/03/01 14:57:07;;;;;;;7.37;7.17;;;;;;;;;;4955392;29;20670;-81
2024/03/01 14:59:42;;;;;;;7.97;7.67;;;;;;;;;;4940366;29;21219;-85
2024/03/01 15:02:11;;;;;;;7.57;7.27;;;;;;;;;;4952311;28;20702;-81
2024/03/01 15:04:44;;;;;;;10.00;9.60;;;;;;;;;;4954204;28;20661;-81
2024/03/01 15:07:12;;;;;;;9.43;9.03;;;;;;;;;;4952952;29;20642;-81
2024/03/01 15:09:48;;;;;;;8.50;8.20;;;;;;;;;;4959730;29;20605;-86
2024/03/01 15:12:19;;;;;;;7.60;7.40;;;;;;;;;;4957264;29;20653;-83
2024/03/01 15:15:08;;;;;;;7.40;7.17;;;;;;;;;;4961767;29;20712;-83
2024/03/01 15:17:40;;;;;;;7.77;7.47;;;;;;;;;;4951956;29;21514;-86
2024/03/01 15:20:10;;;;;;;7.37;7.17;;;;;;;;;;4955279;29;20643;-84